Boerne, Texas
Current Conditions -  °F | °C
As of 5:55 AM on Thursday 23 Oct 2014 (Local Time) from K5C1 Reporting Station
Scattered Clouds Scattered Clouds  
Wind Chill: 63°   Ceiling: Unl
Heat Index: 63°   Visibility: 7mi
Dew Point: 61°   Wind: 0mph
Humidity: 94%   Direction: NA
Pressure: 30.12"   Gusts: NA
Location:  29.8°N, 98.74°W
Report Text: K5C1 231055Z AUTO 00000KT 7SM SCT120 17/16 A3012 RMK AO1
Loading
Personal Weather Stations






























Interactive Weather Map
Tropical Storm Tracking
New forecast layout! Learn more

10-Day Weather Forecast

Advertisements
Track Severe Weather on mobile